Time;durP1;ratioP1;P1;durP2;ratioP2;P2;SDS_P1;SDS_P2;PMS_P1;PMS_P2;Temp;Humidity;BMP_temperature;BMP_pressure;BME280_temperature;BME280_humidity;BME280_pressure;Samples;Min_cycle;Max_cycle;Signal;HPM_P1;HPM_P2
2023/01/25 00:02:02;;;;;;;111.83;38.67;;;2.20;99.90;;;;;;5096467;28;20272;-76
2023/01/25 00:04:28;;;;;;;18.10;13.67;;;1.90;99.90;;;;;;5095421;28;20176;-76
2023/01/25 00:06:54;;;;;;;13.80;11.53;;;1.80;99.90;;;;;;5095185;28;20266;-76
2023/01/25 00:09:43;;;;;;;66.50;29.73;;;1.80;99.90;;;;;;5095124;28;20173;-76
2023/01/25 00:12:08;;;;;;;14.07;11.83;;;1.90;99.90;;;;;;5096586;28;20153;-76
2023/01/25 00:14:34;;;;;;;16.27;13.07;;;1.90;99.90;;;;;;5094940;28;20206;-76
2023/01/25 00:17:00;;;;;;;20.60;13.70;;;1.90;99.90;;;;;;5095063;28;20279;-76
2023/01/25 00:19:25;;;;;;;15.50;12.93;;;1.80;99.90;;;;;;5094904;28;20177;-76
2023/01/25 00:21:51;;;;;;;40.27;20.23;;;1.70;99.90;;;;;;5095244;28;20183;-76
2023/01/25 00:24:16;;;;;;;23.60;16.20;;;1.80;99.90;;;;;;5094844;28;20181;-76
2023/01/25 00:26:45;;;;;;;34.00;18.30;;;1.80;99.90;;;;;;5095031;28;20258;-76
2023/01/25 00:29:12;;;;;;;15.53;12.50;;;1.80;99.90;;;;;;5094788;28;20173;-76
2023/01/25 00:31:56;;;;;;;57.70;25.93;;;1.60;99.90;;;;;;5094673;28;20260;-76
2023/01/25 00:34:24;;;;;;;20.93;14.93;;;1.50;99.90;;;;;;5096153;28;20255;-76
2023/01/25 00:36:51;;;;;;;20.63;14.60;;;1.60;99.90;;;;;;5096147;28;20180;-76
2023/01/25 00:39:16;;;;;;;65.63;32.10;;;1.60;99.90;;;;;;5094431;28;20430;-76
2023/01/25 00:41:42;;;;;;;32.37;19.37;;;1.40;99.90;;;;;;5094392;28;20183;-76
2023/01/25 00:44:08;;;;;;;21.17;14.80;;;1.50;99.90;;;;;;5096232;28;20213;-76
2023/01/25 00:46:34;;;;;;;14.63;11.13;;;1.70;99.90;;;;;;5095454;28;20220;-76
2023/01/25 00:48:59;;;;;;;14.07;11.43;;;1.70;99.90;;;;;;5095827;28;20177;-76
2023/01/25 00:51:25;;;;;;;20.60;15.60;;;1.80;99.90;;;;;;5095938;28;20173;-76
2023/01/25 00:53:51;;;;;;;19.90;15.10;;;1.70;99.90;;;;;;5095215;28;20187;-76
2023/01/25 00:56:17;;;;;;;13.90;11.80;;;1.70;99.90;;;;;;5094517;28;20197;-76
2023/01/25 00:58:42;;;;;;;14.97;11.40;;;1.80;99.90;;;;;;5094394;28;20237;-76
2023/01/25 01:01:09;;;;;;;17.67;14.03;;;1.90;99.90;;;;;;5095571;28;20173;-76
2023/01/25 01:03:34;;;;;;;12.63;11.33;;;1.90;99.90;;;;;;5095352;28;20168;-76
2023/01/25 01:06:05;;;;;;;12.70;11.40;;;1.90;99.90;;;;;;5093986;28;20287;-76
2023/01/25 01:08:37;;;;;;;13.17;11.57;;;1.90;99.90;;;;;;5094415;28;20204;-76
2023/01/25 01:11:06;;;;;;;13.17;11.77;;;1.90;99.90;;;;;;5094109;28;20188;-76
2023/01/25 01:13:32;;;;;;;14.83;12.33;;;2.00;99.90;;;;;;5093829;28;20177;-76
2023/01/25 01:16:03;;;;;;;13.70;12.17;;;2.00;99.90;;;;;;5095116;28;20197;-76
2023/01/25 01:18:36;;;;;;;14.47;12.47;;;2.00;99.90;;;;;;5094616;28;20226;-76
2023/01/25 01:21:02;;;;;;;15.07;13.20;;;1.80;99.90;;;;;;5095222;28;20275;-76
2023/01/25 01:23:29;;;;;;;15.17;13.53;;;1.70;99.90;;;;;;5093941;28;20216;-76
2023/01/25 01:25:54;;;;;;;15.53;13.70;;;1.80;99.90;;;;;;5093861;28;20201;-76
2023/01/25 01:28:20;;;;;;;15.63;13.97;;;1.70;99.90;;;;;;5093634;28;20205;-76
2023/01/25 01:30:45;;;;;;;14.57;13.00;;;1.80;99.90;;;;;;5093535;28;20177;-76
2023/01/25 01:33:11;;;;;;;14.93;13.33;;;1.90;99.90;;;;;;5094760;28;20213;-76
2023/01/25 01:35:36;;;;;;;14.63;13.10;;;2.00;99.90;;;;;;5094052;28;20220;-76
2023/01/25 01:38:02;;;;;;;15.07;12.67;;;2.00;99.90;;;;;;5093430;28;20207;-76
2023/01/25 01:40:28;;;;;;;13.57;12.17;;;2.00;99.90;;;;;;5093718;28;20176;-76
2023/01/25 01:43:01;;;;;;;14.10;12.10;;;2.00;99.90;;;;;;5093273;28;20177;-76
2023/01/25 01:45:42;;;;;;;14.83;12.77;;;2.10;99.90;;;;;;5094140;28;20373;-76
2023/01/25 01:48:15;;;;;;;16.23;12.40;;;2.10;99.90;;;;;;5093787;28;20307;-76
2023/01/25 01:50:41;;;;;;;13.37;11.97;;;2.10;99.90;;;;;;5093344;28;20307;-76
2023/01/25 01:53:07;;;;;;;16.53;14.30;;;2.10;99.90;;;;;;5092428;28;20181;-76
2023/01/25 01:55:33;;;;;;;16.17;13.73;;;1.90;99.90;;;;;;5094805;28;20193;-76
2023/01/25 01:57:59;;;;;;;15.07;13.23;;;1.70;99.90;;;;;;5093463;28;20187;-76
2023/01/25 02:00:29;;;;;;;15.80;13.17;;;1.70;99.90;;;;;;5093013;28;20185;-76
2023/01/25 02:02:55;;;;;;;14.93;13.30;;;1.80;99.90;;;;;;5093113;28;20205;-76
2023/01/25 02:05:29;;;;;;;16.20;13.67;;;1.70;99.90;;;;;;5093109;28;20255;-76
2023/01/25 02:07:56;;;;;;;18.27;15.63;;;1.80;99.90;;;;;;5092914;28;20280;-76
2023/01/25 02:10:23;;;;;;;15.77;13.83;;;1.80;99.90;;;;;;5092836;28;20188;-76
2023/01/25 02:12:51;;;;;;;14.97;12.60;;;1.70;99.90;;;;;;5094287;28;20196;-76
2023/01/25 02:15:17;;;;;;;14.07;12.57;;;1.60;99.90;;;;;;5092723;28;20197;-76
2023/01/25 02:17:43;;;;;;;12.90;11.33;;;1.70;99.90;;;;;;5093029;28;20665;-76
2023/01/25 02:20:11;;;;;;;11.97;10.77;;;1.80;99.90;;;;;;5094175;28;20181;-76
2023/01/25 02:22:55;;;;;;;14.03;12.53;;;1.80;99.90;;;;;;5093954;28;20192;-76
2023/01/25 02:25:20;;;;;;;16.97;13.83;;;1.60;99.90;;;;;;5093347;28;20231;-76
2023/01/25 02:28:13;;;;;;;14.83;12.13;;;1.50;99.90;;;;;;5092863;28;20216;-76
2023/01/25 02:30:40;;;;;;;14.33;12.17;;;1.30;99.90;;;;;;5092570;28;20187;-76
2023/01/25 02:33:05;;;;;;;15.90;12.77;;;1.40;99.90;;;;;;5092663;28;20181;-76
2023/01/25 02:35:50;;;;;;;15.53;13.33;;;1.40;99.90;;;;;;5093900;28;20196;-76
2023/01/25 02:38:17;;;;;;;14.13;12.57;;;1.50;99.90;;;;;;5092511;28;20259;-76
2023/01/25 02:41:02;;;;;;;14.67;13.13;;;1.60;99.90;;;;;;5092482;28;20669;-76
2023/01/25 02:43:31;;;;;;;15.07;13.30;;;1.70;99.90;;;;;;5093672;28;20177;-76
2023/01/25 02:46:13;;;;;;;13.87;12.33;;;1.70;99.90;;;;;;5093583;28;20303;-76
2023/01/25 02:48:38;;;;;;;15.23;13.43;;;1.70;99.90;;;;;;5093234;28;20176;-76
2023/01/25 02:51:07;;;;;;;13.57;12.17;;;1.80;99.90;;;;;;5092320;28;20172;-76
2023/01/25 02:53:32;;;;;;;14.87;12.50;;;1.80;99.90;;;;;;5092341;28;20177;-76
2023/01/25 02:55:58;;;;;;;14.67;12.87;;;1.80;99.90;;;;;;5092237;28;20288;-76
2023/01/25 02:58:23;;;;;;;15.03;13.00;;;1.80;99.90;;;;;;5093059;28;20176;-76
2023/01/25 03:00:49;;;;;;;14.67;13.03;;;1.80;99.90;;;;;;5092278;28;20181;-76
2023/01/25 03:03:15;;;;;;;14.67;13.10;;;1.70;99.90;;;;;;5093892;28;20211;-76
2023/01/25 03:05:40;;;;;;;15.83;13.50;;;1.70;99.90;;;;;;5096275;28;20201;-76
2023/01/25 03:08:06;;;;;;;15.80;14.00;;;1.70;99.90;;;;;;5097459;28;20204;-76
2023/01/25 03:10:31;;;;;;;14.57;12.73;;;1.70;99.90;;;;;;5097160;28;20271;-76
2023/01/25 03:12:57;;;;;;;15.57;13.27;;;1.70;99.90;;;;;;5097754;28;20183;-76
2023/01/25 03:15:22;;;;;;;14.13;12.63;;;1.70;99.90;;;;;;5096140;28;20205;-76
2023/01/25 03:21:13;;;;;;;13.80;12.33;;;1.60;99.90;;;;;;5097362;28;20180;-76
2023/01/25 03:23:39;;;;;;;13.13;11.73;;;1.70;99.90;;;;;;5096899;28;20338;-76
2023/01/25 03:26:17;;;;;;;13.27;11.87;;;1.70;99.90;;;;;;5096275;28;20208;-76
2023/01/25 03:28:43;;;;;;;13.70;11.67;;;1.70;99.90;;;;;;5097270;28;20172;-76
2023/01/25 03:31:11;;;;;;;19.03;13.97;;;1.70;99.90;;;;;;5096213;28;20188;-76
2023/01/25 03:33:37;;;;;;;18.40;14.33;;;1.60;99.90;;;;;;5095847;28;20185;-76
2023/01/25 03:36:03;;;;;;;16.57;13.73;;;1.60;99.90;;;;;;5095741;28;20201;-76
2023/01/25 03:38:29;;;;;;;16.40;14.50;;;1.50;99.90;;;;;;5096302;28;20176;-76
2023/01/25 03:40:55;;;;;;;14.30;12.67;;;1.50;99.90;;;;;;5095750;28;20188;-76
2023/01/25 03:43:21;;;;;;;16.90;14.50;;;1.50;99.90;;;;;;5097253;28;20169;-76
2023/01/25 03:45:54;;;;;;;14.27;12.73;;;1.50;99.90;;;;;;5095410;28;20235;-76
2023/01/25 03:48:21;;;;;;;14.20;12.47;;;1.60;99.90;;;;;;5096716;28;20200;-76
2023/01/25 03:50:52;;;;;;;16.30;13.10;;;1.50;99.90;;;;;;5096759;28;20293;-76
2023/01/25 03:53:27;;;;;;;16.07;13.97;;;1.30;99.90;;;;;;5095474;28;20181;-76
2023/01/25 03:56:07;;;;;;;15.73;13.83;;;1.40;99.90;;;;;;5095899;28;20214;-76
2023/01/25 03:58:33;;;;;;;15.67;13.47;;;1.50;99.90;;;;;;5096875;28;20164;-76
2023/01/25 04:01:00;;;;;;;16.47;12.97;;;1.40;99.90;;;;;;5096225;28;20230;-76
2023/01/25 04:03:26;;;;;;;15.60;13.13;;;1.40;99.90;;;;;;5096527;28;20176;-76
2023/01/25 04:05:53;;;;;;;15.03;13.43;;;1.40;99.90;;;;;;5096428;28;20196;-76
2023/01/25 04:08:19;;;;;;;17.50;14.73;;;1.30;99.90;;;;;;5095127;28;20204;-76
2023/01/25 04:11:02;;;;;;;19.60;13.93;;;1.20;99.90;;;;;;5095229;28;20177;-76
2023/01/25 04:13:28;;;;;;;15.93;13.17;;;1.20;99.90;;;;;;5095138;28;20181;-76
2023/01/25 04:15:54;;;;;;;14.00;12.50;;;1.30;99.90;;;;;;5094300;28;20199;-76
2023/01/25 04:18:20;;;;;;;14.77;12.90;;;1.20;99.90;;;;;;5094953;28;20176;-76
2023/01/25 04:20:52;;;;;;;15.10;13.00;;;1.30;99.90;;;;;;5096298;28;20180;-76
2023/01/25 04:23:18;;;;;;;15.20;12.87;;;1.30;99.90;;;;;;5095793;28;20184;-76
2023/01/25 04:25:52;;;;;;;14.77;12.83;;;1.40;99.90;;;;;;5094789;28;20197;-76
2023/01/25 04:28:18;;;;;;;15.20;12.30;;;1.50;99.90;;;;;;5094837;28;20220;-76
2023/01/25 04:30:44;;;;;;;14.10;12.40;;;1.50;99.90;;;;;;5094768;28;20199;-76
2023/01/25 04:33:10;;;;;;;13.17;11.83;;;1.40;99.90;;;;;;5094730;28;20211;-76
2023/01/25 04:35:36;;;;;;;12.90;11.47;;;1.40;99.90;;;;;;5094574;28;20197;-76
2023/01/25 04:38:02;;;;;;;12.80;11.43;;;1.40;99.90;;;;;;5095542;28;20177;-76
2023/01/25 04:40:28;;;;;;;13.03;10.93;;;1.50;99.90;;;;;;5094952;28;20688;-76
2023/01/25 04:42:53;;;;;;;11.87;10.67;;;1.50;99.90;;;;;;5095346;28;20177;-76
2023/01/25 04:45:19;;;;;;;12.90;11.30;;;1.50;99.90;;;;;;5094748;28;20232;-76
2023/01/25 04:47:44;;;;;;;11.40;10.27;;;1.50;99.90;;;;;;5095427;28;20214;-75
2023/01/25 04:50:10;;;;;;;11.63;10.43;;;1.50;99.90;;;;;;5095578;28;20644;-75
2023/01/25 04:52:36;;;;;;;14.17;12.60;;;1.60;99.90;;;;;;5094406;28;20200;-75
2023/01/25 04:55:01;;;;;;;15.33;13.07;;;1.30;99.90;;;;;;5094270;28;20192;-76
2023/01/25 04:57:27;;;;;;;13.23;11.27;;;1.20;99.90;;;;;;5095076;28;20181;-76
2023/01/25 04:59:52;;;;;;;14.10;12.60;;;1.20;99.90;;;;;;5094237;28;20183;-76
2023/01/25 05:02:18;;;;;;;14.03;12.53;;;1.00;99.90;;;;;;5094200;28;20181;-76
2023/01/25 05:04:43;;;;;;;15.10;13.50;;;0.80;99.90;;;;;;5095248;28;20197;-76
2023/01/25 05:07:09;;;;;;;15.47;13.70;;;1.00;99.90;;;;;;5093981;28;20228;-76
2023/01/25 05:09:34;;;;;;;31.57;24.33;;;1.00;99.90;;;;;;5094086;28;20555;-78
2023/01/25 05:12:00;;;;;;;28.63;23.47;;;1.10;99.90;;;;;;5094207;28;20188;-76
2023/01/25 05:14:26;;;;;;;14.10;12.60;;;1.10;99.90;;;;;;5094676;28;20624;-76
2023/01/25 05:16:51;;;;;;;13.37;11.97;;;1.30;99.90;;;;;;5095132;28;20184;-76
2023/01/25 05:19:17;;;;;;;13.57;11.60;;;1.40;99.90;;;;;;5093848;28;20238;-76
2023/01/25 05:21:57;;;;;;;13.30;11.77;;;1.50;99.90;;;;;;5094299;28;20181;-76
2023/01/25 05:24:30;;;;;;;13.23;11.83;;;1.50;99.90;;;;;;5094979;28;20161;-76
2023/01/25 05:27:00;;;;;;;12.53;11.23;;;1.60;99.90;;;;;;5094098;28;20193;-76
2023/01/25 05:32:49;;;;;;;13.10;11.20;;;1.70;99.90;;;;;;5094752;28;20618;-76
2023/01/25 05:35:15;;;;;;;11.63;10.50;;;1.70;99.90;;;;;;5094826;28;20254;-76
2023/01/25 05:37:41;;;;;;;12.30;11.00;;;1.70;99.90;;;;;;5094145;28;20252;-75
2023/01/25 05:40:07;;;;;;;13.20;11.50;;;1.70;99.90;;;;;;5094746;28;20205;-76
2023/01/25 05:45:51;;;;;;;11.97;10.77;;;1.50;99.90;;;;;;5094933;28;20208;-76
2023/01/25 05:48:16;;;;;;;12.07;10.43;;;1.50;99.90;;;;;;5094516;28;20193;-76
2023/01/25 05:50:42;;;;;;;10.63;9.53;;;1.50;99.90;;;;;;5094082;28;20177;-76
2023/01/25 05:53:07;;;;;;;10.33;9.20;;;1.50;99.90;;;;;;5093465;28;20242;-76
2023/01/25 05:55:35;;;;;;;10.27;9.17;;;1.60;99.90;;;;;;5093739;28;20200;-76
2023/01/25 05:58:00;;;;;;;11.57;9.70;;;1.60;99.90;;;;;;5093420;28;20188;-76
2023/01/25 06:00:26;;;;;;;10.37;9.23;;;1.60;99.90;;;;;;5093044;28;20181;-76
2023/01/25 06:02:51;;;;;;;10.70;8.73;;;1.50;99.90;;;;;;5094799;28;20180;-76
2023/01/25 06:05:22;;;;;;;9.73;8.73;;;1.50;99.90;;;;;;5094141;28;20209;-76
2023/01/25 06:07:48;;;;;;;10.87;9.80;;;1.40;99.90;;;;;;5094104;28;20693;-76
2023/01/25 06:10:14;;;;;;;12.03;10.30;;;1.40;99.90;;;;;;5092885;28;20173;-76
2023/01/25 06:12:39;;;;;;;9.83;8.83;;;1.30;99.90;;;;;;5094143;28;20180;-76
2023/01/25 06:15:05;;;;;;;13.40;11.70;;;1.40;99.90;;;;;;5092801;28;20242;-76
2023/01/25 06:17:31;;;;;;;15.03;12.20;;;1.30;99.90;;;;;;5094251;28;20188;-76
2023/01/25 06:19:56;;;;;;;14.20;12.17;;;1.20;99.90;;;;;;5093309;28;20181;-76
2023/01/25 06:22:22;;;;;;;13.37;11.77;;;1.20;99.90;;;;;;5092664;28;20204;-75
2023/01/25 06:24:47;;;;;;;15.17;13.57;;;1.20;99.90;;;;;;5094100;28;20615;-76
2023/01/25 06:27:13;;;;;;;17.47;15.03;;;1.10;99.90;;;;;;5092593;28;20235;-76
2023/01/25 06:29:38;;;;;;;24.33;17.30;;;1.10;99.90;;;;;;5094088;28;20714;-76
2023/01/25 06:32:04;;;;;;;10.93;9.00;;;1.20;99.90;;;;;;5092885;28;20540;-76
2023/01/25 06:34:29;;;;;;;10.80;9.03;;;1.20;99.90;;;;;;5092415;28;20639;-76
2023/01/25 06:36:55;;;;;;;11.63;9.43;;;1.30;99.90;;;;;;5092496;28;20185;-75
2023/01/25 06:39:20;;;;;;;10.97;9.50;;;1.40;99.90;;;;;;5092134;28;20180;-76
2023/01/25 06:41:46;;;;;;;10.90;8.80;;;1.30;99.90;;;;;;5093035;28;20255;-76
2023/01/25 06:44:11;;;;;;;9.60;8.53;;;1.30;99.90;;;;;;5093247;28;20184;-75
2023/01/25 06:46:37;;;;;;;10.47;9.10;;;1.30;99.90;;;;;;5091579;28;20224;-75
2023/01/25 06:49:04;;;;;;;12.20;9.33;;;1.30;99.90;;;;;;5092502;28;20283;-76
2023/01/25 06:51:29;;;;;;;10.63;9.50;;;1.20;99.90;;;;;;5092840;28;20245;-76
2023/01/25 06:53:55;;;;;;;12.27;10.90;;;1.20;99.90;;;;;;5092721;28;20268;-76
2023/01/25 06:56:21;;;;;;;11.47;10.00;;;1.30;99.90;;;;;;5085455;28;20780;-76
2023/01/25 06:58:48;;;;;;;11.47;10.27;;;1.20;99.90;;;;;;5091393;28;20226;-76
2023/01/25 07:01:19;;;;;;;13.83;11.43;;;1.40;99.90;;;;;;5092508;28;20177;-76
2023/01/25 07:03:53;;;;;;;12.77;9.77;;;1.20;99.90;;;;;;5088932;28;20169;-76
2023/01/25 07:06:19;;;;;;;12.67;11.07;;;1.30;99.90;;;;;;5091850;28;20569;-76
2023/01/25 07:08:45;;;;;;;16.17;12.30;;;1.30;99.90;;;;;;5091954;28;20204;-76
2023/01/25 07:11:14;;;;;;;15.60;11.63;;;1.30;99.90;;;;;;5091561;28;20229;-76
2023/01/25 07:13:42;;;;;;;14.53;11.77;;;1.30;99.90;;;;;;5093039;28;20165;-76
2023/01/25 07:16:12;;;;;;;13.97;11.20;;;1.30;99.90;;;;;;5093046;28;20201;-76
2023/01/25 07:18:37;;;;;;;19.03;13.67;;;1.20;99.90;;;;;;5091957;28;20208;-76
2023/01/25 07:21:12;;;;;;;17.97;13.90;;;1.20;99.90;;;;;;5091808;28;20188;-76
2023/01/25 07:23:38;;;;;;;15.80;12.13;;;1.10;99.90;;;;;;5093072;28;20176;-76
2023/01/25 07:26:05;;;;;;;17.93;13.20;;;1.00;99.90;;;;;;5091682;28;20201;-76
2023/01/25 07:28:31;;;;;;;16.87;13.53;;;0.90;99.90;;;;;;5092499;28;20227;-76
2023/01/25 07:31:07;;;;;;;16.87;13.17;;;0.90;99.90;;;;;;5091788;28;20188;-76
2023/01/25 07:33:33;;;;;;;15.97;12.93;;;0.90;99.90;;;;;;5093383;28;20269;-76
2023/01/25 07:36:04;;;;;;;14.83;12.83;;;0.90;99.90;;;;;;5091710;28;20293;-76
2023/01/25 07:38:30;;;;;;;16.53;14.30;;;1.10;99.90;;;;;;5092472;28;20179;-76
2023/01/25 07:40:56;;;;;;;16.87;13.70;;;1.10;99.90;;;;;;5091845;28;20185;-76
2023/01/25 07:43:22;;;;;;;19.93;17.23;;;1.00;99.90;;;;;;5092950;28;20268;-76
2023/01/25 07:45:48;;;;;;;17.77;14.47;;;1.10;99.90;;;;;;5091117;28;20204;-76
2023/01/25 07:48:15;;;;;;;17.67;14.67;;;1.10;99.90;;;;;;5088176;28;20193;-76
2023/01/25 07:50:40;;;;;;;13.43;11.70;;;1.30;99.90;;;;;;5093509;28;20231;-76
2023/01/25 07:53:07;;;;;;;14.27;11.87;;;1.30;99.90;;;;;;5095319;28;20168;-76
2023/01/25 07:55:32;;;;;;;13.57;11.33;;;1.40;99.90;;;;;;5094963;28;20184;-76
2023/01/25 07:57:59;;;;;;;27.87;19.83;;;1.50;99.90;;;;;;5095944;28;20184;-76
2023/01/25 08:00:25;;;;;;;17.70;13.90;;;1.50;99.90;;;;;;5096531;28;20176;-76
2023/01/25 08:02:51;;;;;;;15.30;13.03;;;1.40;99.90;;;;;;5095192;28;20180;-76
2023/01/25 08:05:17;;;;;;;22.13;18.07;;;1.50;99.90;;;;;;5096070;28;20208;-76
2023/01/25 08:07:42;;;;;;;18.87;15.83;;;1.50;99.90;;;;;;5095492;28;20203;-76
2023/01/25 08:10:09;;;;;;;15.70;12.87;;;1.50;99.90;;;;;;5094987;28;20177;-76
2023/01/25 08:12:34;;;;;;;12.50;11.20;;;1.30;99.90;;;;;;5093615;28;20203;-76
2023/01/25 08:15:00;;;;;;;18.10;15.40;;;1.10;99.90;;;;;;5094934;28;20290;-76
2023/01/25 08:17:30;;;;;;;23.80;18.97;;;1.00;99.90;;;;;;5096174;28;20256;-76
2023/01/25 08:19:57;;;;;;;19.80;16.30;;;1.00;99.90;;;;;;5094876;28;20176;-76
2023/01/25 08:22:23;;;;;;;21.10;16.57;;;0.80;99.90;;;;;;5095034;28;20181;-76
2023/01/25 08:24:49;;;;;;;25.07;20.03;;;1.00;99.90;;;;;;5095688;28;20197;-76
2023/01/25 08:27:15;;;;;;;19.87;16.40;;;1.20;99.90;;;;;;5094661;28;20566;-76
2023/01/25 08:29:40;;;;;;;16.33;13.10;;;1.30;99.90;;;;;;5095273;28;20177;-76
2023/01/25 08:32:06;;;;;;;14.90;12.70;;;1.50;99.90;;;;;;5094013;28;20181;-76
2023/01/25 08:34:33;;;;;;;15.77;11.93;;;1.50;99.90;;;;;;5094637;28;20181;-76
2023/01/25 08:36:59;;;;;;;19.27;15.37;;;1.50;99.90;;;;;;5094464;28;20194;-76
2023/01/25 08:39:25;;;;;;;22.00;17.00;;;1.30;99.90;;;;;;5094595;28;20180;-76
2023/01/25 08:41:50;;;;;;;19.53;15.80;;;1.10;99.90;;;;;;5094316;28;20184;-76
2023/01/25 08:44:21;;;;;;;23.47;17.97;;;0.90;99.90;;;;;;5095747;28;20205;-76
2023/01/25 08:46:46;;;;;;;15.13;12.30;;;0.90;99.90;;;;;;5095540;28;20222;-76
2023/01/25 08:49:12;;;;;;;16.43;13.93;;;0.80;99.90;;;;;;5094771;28;20183;-76
2023/01/25 08:51:38;;;;;;;17.13;13.40;;;0.90;99.90;;;;;;5087777;28;20182;-76
2023/01/25 08:54:09;;;;;;;17.50;13.83;;;0.70;99.90;;;;;;5095458;28;20254;-76
2023/01/25 08:56:41;;;;;;;14.47;11.90;;;0.90;99.90;;;;;;5091525;28;20197;-76
2023/01/25 08:59:09;;;;;;;20.27;14.63;;;1.10;99.90;;;;;;5087781;28;20203;-76
2023/01/25 09:01:35;;;;;;;18.47;15.37;;;0.90;99.90;;;;;;5093794;28;20200;-77
2023/01/25 09:04:01;;;;;;;19.27;15.77;;;0.90;99.90;;;;;;5093891;28;20655;-76
2023/01/25 09:06:26;;;;;;;24.90;19.17;;;1.00;99.90;;;;;;5095335;28;20199;-77
2023/01/25 09:08:52;;;;;;;21.80;16.77;;;1.20;99.90;;;;;;5095175;28;20177;-77
2023/01/25 09:11:20;;;;;;;23.10;17.23;;;1.10;99.90;;;;;;5093901;28;20180;-77
2023/01/25 09:13:47;;;;;;;19.90;14.97;;;1.10;99.90;;;;;;5095067;28;20180;-76
2023/01/25 09:16:15;;;;;;;25.77;19.10;;;1.10;99.90;;;;;;5094980;28;20577;-76
2023/01/25 09:19:32;;;;;;;20.00;15.80;;;1.30;99.90;;;;;;5093495;28;20181;-77
2023/01/25 09:22:23;;;;;;;17.50;14.50;;;1.50;99.90;;;;;;5093763;28;20262;-77
2023/01/25 09:24:51;;;;;;;15.83;12.90;;;1.30;99.90;;;;;;5095024;28;20193;-77
2023/01/25 09:27:16;;;;;;;15.77;13.07;;;1.40;99.90;;;;;;5093713;28;20213;-76
2023/01/25 09:29:42;;;;;;;18.20;13.77;;;1.40;99.90;;;;;;5093674;28;20318;-76
2023/01/25 09:32:07;;;;;;;16.73;13.47;;;1.10;99.90;;;;;;5093863;28;20177;-76
2023/01/25 09:34:33;;;;;;;20.57;15.33;;;1.00;99.90;;;;;;5093470;28;20181;-76
2023/01/25 09:36:58;;;;;;;28.67;25.00;;;0.80;99.90;;;;;;5094264;28;20268;-76
2023/01/25 09:39:24;;;;;;;21.17;17.53;;;1.00;99.90;;;;;;5094623;28;20184;-76
2023/01/25 09:42:31;;;;;;;16.97;14.07;;;1.10;99.90;;;;;;5094969;28;20173;-77
2023/01/25 09:45:21;;;;;;;19.00;16.27;;;1.10;99.90;;;;;;5093435;28;20203;-77
2023/01/25 09:47:56;;;;;;;21.90;16.27;;;1.10;99.90;;;;;;5092068;28;20220;-77
2023/01/25 09:50:34;;;;;;;15.00;11.53;;;1.30;99.90;;;;;;5093912;28;20163;-77
2023/01/25 09:53:29;;;;;;;15.00;11.90;;;1.50;99.90;;;;;;5094408;28;20173;-77
2023/01/25 09:55:58;;;;;;;14.00;10.97;;;1.50;99.90;;;;;;5092788;28;20218;-77
2023/01/25 09:58:31;;;;;;;13.60;11.13;;;1.50;99.90;;;;;;5094532;28;20200;-77
2023/01/25 10:01:20;;;;;;;19.80;16.20;;;1.50;99.90;;;;;;5092962;28;20260;-77
2023/01/25 10:04:08;;;;;;;13.87;11.67;;;1.60;99.90;;;;;;5092978;28;20161;-79
2023/01/25 10:06:39;;;;;;;24.47;19.93;;;1.60;99.90;;;;;;5093176;28;20257;-77
2023/01/25 10:09:27;;;;;;;15.97;12.70;;;1.60;99.90;;;;;;5094494;28;20233;-77
2023/01/25 10:11:52;;;;;;;14.80;12.60;;;1.60;99.90;;;;;;5093850;28;20192;-77
2023/01/25 10:14:20;;;;;;;15.73;12.80;;;1.60;99.90;;;;;;5092245;28;20215;-77
2023/01/25 10:16:45;;;;;;;17.50;12.23;;;1.50;99.90;;;;;;5092643;28;20675;-76
2023/01/25 10:19:30;;;;;;;17.47;14.07;;;1.50;99.90;;;;;;5093866;28;20181;-76
2023/01/25 10:22:14;;;;;;;15.40;11.80;;;1.60;99.90;;;;;;5092729;28;20280;-77
2023/01/25 10:24:49;;;;;;;14.40;10.30;;;1.70;99.90;;;;;;5092318;28;20177;-77
2023/01/25 10:27:55;;;;;;;13.53;10.77;;;1.60;99.90;;;;;;5092385;28;20679;-77
2023/01/25 10:30:29;;;;;;;13.57;11.10;;;1.80;99.90;;;;;;5094248;28;20160;-77
2023/01/25 10:33:00;;;;;;;14.50;10.50;;;1.80;99.90;;;;;;5093694;28;20180;-77
2023/01/25 10:35:31;;;;;;;12.60;10.80;;;1.80;99.90;;;;;;5092318;28;20201;-77
2023/01/25 10:38:05;;;;;;;9.60;7.43;;;2.00;99.90;;;;;;5092413;28;20255;-77
2023/01/25 10:40:39;;;;;;;12.50;9.93;;;1.90;99.90;;;;;;5092892;28;20529;-77
2023/01/25 10:43:18;;;;;;;13.73;10.53;;;1.90;99.90;;;;;;5092471;28;20170;-77
2023/01/25 10:45:45;;;;;;;10.07;8.20;;;2.00;99.90;;;;;;5091944;28;20265;-77
2023/01/25 10:48:32;;;;;;;11.30;9.30;;;2.10;99.90;;;;;;5092222;28;20208;-77
2023/01/25 10:50:58;;;;;;;10.20;9.00;;;1.80;99.90;;;;;;5092468;28;20259;-77
2023/01/25 10:53:31;;;;;;;11.00;8.73;;;1.70;99.90;;;;;;5093461;28;20177;-78
2023/01/25 10:56:10;;;;;;;8.50;6.97;;;1.80;99.90;;;;;;5093348;28;20193;-77
2023/01/25 10:58:42;;;;;;;8.93;7.40;;;2.00;99.90;;;;;;5092182;28;20176;-77
2023/01/25 11:01:23;;;;;;;8.60;7.00;;;2.10;99.90;;;;;;5092901;28;20172;-77
2023/01/25 11:03:48;;;;;;;9.23;7.93;;;2.00;99.90;;;;;;5072300;28;20233;-77
2023/01/25 11:06:30;;;;;;;9.00;7.33;;;2.20;99.90;;;;;;5071813;28;20237;-77
2023/01/25 11:08:55;;;;;;;11.00;8.53;;;2.30;99.90;;;;;;5073236;28;20189;-77
2023/01/25 11:11:37;;;;;;;9.80;7.27;;;2.30;99.90;;;;;;5073059;28;20176;-77
2023/01/25 11:14:15;;;;;;;8.97;7.30;;;2.10;99.90;;;;;;5073283;28;20208;-77
2023/01/25 11:16:47;;;;;;;9.37;7.83;;;2.20;99.90;;;;;;5072933;28;20217;-77
2023/01/25 11:19:35;;;;;;;12.67;9.10;;;2.10;99.90;;;;;;5071866;28;20169;-77
2023/01/25 11:22:04;;;;;;;9.67;8.33;;;2.00;99.90;;;;;;5072232;28;20227;-77
2023/01/25 11:24:33;;;;;;;10.47;8.40;;;1.90;99.90;;;;;;5095019;28;20187;-77
2023/01/25 11:27:17;;;;;;;14.20;11.17;;;2.00;99.90;;;;;;5097341;28;20210;-77
2023/01/25 11:29:45;;;;;;;10.53;8.00;;;1.90;99.90;;;;;;5096859;28;20206;-77
2023/01/25 11:32:20;;;;;;;9.67;7.90;;;2.00;99.90;;;;;;5096224;28;20177;-77
2023/01/25 11:34:46;;;;;;;10.40;9.20;;;2.10;99.90;;;;;;5096816;28;20192;-77
2023/01/25 11:37:33;;;;;;;8.03;6.80;;;1.90;99.90;;;;;;5097220;28;20169;-77
2023/01/25 11:40:11;;;;;;;10.57;8.13;;;2.00;99.90;;;;;;5096123;28;20195;-77
2023/01/25 11:42:41;;;;;;;11.03;9.33;;;2.00;99.90;;;;;;5095831;28;20165;-77
2023/01/25 11:45:34;;;;;;;10.63;8.67;;;1.90;99.90;;;;;;5095863;28;20207;-77
2023/01/25 11:48:15;;;;;;;14.23;11.20;;;1.90;99.90;;;;;;5095285;28;20276;-77
2023/01/25 11:50:59;;;;;;;10.07;8.20;;;2.00;99.90;;;;;;5096043;28;20211;-77
2023/01/25 11:53:36;;;;;;;9.47;7.33;;;2.10;99.90;;;;;;5095877;28;20181;-77
2023/01/25 11:56:02;;;;;;;9.60;7.10;;;2.00;99.90;;;;;;5095277;28;20195;-77
2023/01/25 11:58:34;;;;;;;9.73;7.90;;;2.10;99.90;;;;;;5095603;28;20181;-77
2023/01/25 12:01:34;;;;;;;11.47;7.60;;;2.20;99.90;;;;;;5096761;28;20189;-77
2023/01/25 12:04:23;;;;;;;9.50;7.13;;;2.20;99.90;;;;;;5095048;28;20188;-77
2023/01/25 12:07:11;;;;;;;10.33;7.63;;;2.10;99.90;;;;;;5096661;28;20171;-77
2023/01/25 12:10:01;;;;;;;9.40;7.27;;;2.10;99.90;;;;;;5096520;28;20234;-77
2023/01/25 12:13:04;;;;;;;9.23;6.60;;;2.00;99.90;;;;;;5096118;28;20215;-77
2023/01/25 12:16:02;;;;;;;186.30;98.77;;;1.80;99.90;;;;;;5095153;28;20287;-77
2023/01/25 12:19:06;;;;;;;25.20;17.90;;;1.80;99.90;;;;;;5095197;28;20176;-76
2023/01/25 12:21:32;;;;;;;14.53;12.43;;;1.80;99.90;;;;;;5095039;28;20180;-76
2023/01/25 12:24:18;;;;;;;13.53;9.93;;;1.70;99.90;;;;;;5096289;28;20181;-76
2023/01/25 12:27:06;;;;;;;12.43;9.97;;;1.70;99.90;;;;;;5094646;28;20205;-76
2023/01/25 12:29:39;;;;;;;10.50;8.00;;;1.80;99.90;;;;;;5094643;28;20177;-76
2023/01/25 12:32:24;;;;;;;11.63;8.57;;;1.60;99.90;;;;;;5095006;28;20187;-76
2023/01/25 12:35:14;;;;;;;12.17;9.00;;;1.50;99.90;;;;;;5094568;28;20197;-77
2023/01/25 12:37:42;;;;;;;47.30;33.67;;;1.60;99.90;;;;;;5094490;28;20175;-77
2023/01/25 12:40:37;;;;;;;46.80;37.03;;;1.60;99.90;;;;;;5095150;28;20246;-76
2023/01/25 12:43:08;;;;;;;18.37;13.60;;;1.70;99.90;;;;;;5081405;28;20656;-76
2023/01/25 12:45:37;;;;;;;15.00;11.73;;;1.70;99.90;;;;;;5094944;28;20269;-78
2023/01/25 12:48:20;;;;;;;15.00;11.13;;;1.80;99.90;;;;;;5094400;28;20201;-77
2023/01/25 12:50:57;;;;;;;11.50;9.40;;;1.70;99.90;;;;;;5094959;28;20230;-77
2023/01/25 12:53:24;;;;;;;17.40;13.00;;;1.90;99.90;;;;;;5095274;28;20222;-77
2023/01/25 12:55:51;;;;;;;16.17;12.67;;;1.90;99.90;;;;;;5095415;28;20200;-77
2023/01/25 13:01:49;;;;;;;13.40;10.57;;;1.80;99.90;;;;;;5095844;28;20263;-77
2023/01/25 13:04:57;;;;;;;14.00;9.70;;;1.90;99.90;;;;;;5094495;28;20181;-76
2023/01/25 13:07:35;;;;;;;13.43;10.30;;;1.70;99.90;;;;;;5094507;28;20298;-76
2023/01/25 13:13:25;;;;;;;13.37;10.30;;;1.80;99.90;;;;;;5095279;28;20206;-77